Mount Airy, North Carolina
Current Conditions -  °F | °C
As of 6:55 AM on Friday 19 Dec 2014 (Local Time) from KMWK Reporting Station
Clear Clear  
Wind Chill: 35°   Ceiling: Unl
Heat Index: 38°   Visibility: 10mi
Dew Point: 23°   Wind: 5mph
Humidity: 54%   Direction: 360°N
Pressure: 30.14"   Gusts: NA
Location:  36.5°N, 80.61°W
Report Text: KMWK 191155Z AUTO 36004KT 10SM CLR 03/M05 A3014 RMK AO2 T00341051 10065 20020
Loading
Personal Weather Stations






























Interactive Weather Map New forecast layout! Learn more

10-Day Weather Forecast

Advertisements
Track Severe Weather on mobile